createdAt,value
2023-05-06T00:01:38.733Z,8.63
2023-05-06T00:04:09.233Z,10.50
2023-05-06T00:06:38.204Z,10.37
2023-05-06T00:09:06.600Z,9.07
2023-05-06T00:11:34.650Z,6.27
2023-05-06T00:14:02.741Z,5.03
2023-05-06T00:16:31.113Z,4.17
2023-05-06T00:18:59.555Z,3.60
2023-05-06T00:21:28.327Z,3.10
2023-05-06T00:23:56.351Z,3.40
2023-05-06T00:26:24.571Z,3.20
2023-05-06T00:28:52.483Z,2.87
2023-05-06T00:31:22.007Z,3.00
2023-05-06T00:33:50.282Z,3.00
2023-05-06T00:36:21.578Z,2.80
2023-05-06T00:38:49.754Z,3.70
2023-05-06T00:41:17.708Z,4.97
2023-05-06T00:43:45.941Z,3.13
2023-05-06T00:46:16.418Z,4.17
2023-05-06T00:48:45.783Z,6.40
2023-05-06T00:51:14.470Z,7.70
2023-05-06T00:53:42.649Z,6.10
2023-05-06T00:56:10.868Z,5.87
2023-05-06T00:58:39.296Z,5.07
2023-05-06T01:01:08.980Z,4.53
2023-05-06T01:03:38.442Z,4.80
2023-05-06T01:06:28.517Z,4.30
2023-05-06T01:09:24.214Z,4.50
2023-05-06T01:12:30.513Z,5.00
2023-05-06T01:18:41.690Z,5.57
2023-05-06T01:21:13.937Z,6.53
2023-05-06T01:23:58.594Z,7.07
2023-05-06T01:26:27.640Z,6.40
2023-05-06T01:28:56.848Z,7.37
2023-05-06T01:31:30.884Z,6.93
2023-05-06T01:34:28.031Z,8.17
2023-05-06T01:37:15.439Z,8.30
2023-05-06T01:39:45.463Z,8.70
2023-05-06T01:42:14.605Z,8.60
2023-05-06T01:44:46.076Z,8.50
2023-05-06T01:47:14.436Z,7.60
2023-05-06T01:49:43.036Z,7.20
2023-05-06T01:52:11.071Z,6.47
2023-05-06T01:54:39.347Z,5.47
2023-05-06T01:57:07.554Z,5.80
2023-05-06T01:59:35.615Z,5.93
2023-05-06T02:02:03.866Z,6.00
2023-05-06T02:04:32.547Z,6.53
2023-05-06T02:07:00.681Z,5.90
2023-05-06T02:09:28.848Z,6.10
2023-05-06T02:11:57.112Z,6.40
2023-05-06T02:14:25.235Z,5.60
2023-05-06T02:16:53.647Z,4.97
2023-05-06T02:19:21.919Z,5.03
2023-05-06T02:21:49.869Z,4.77
2023-05-06T02:24:17.805Z,3.93
2023-05-06T02:26:48.633Z,5.93
2023-05-06T02:29:18.684Z,4.33
2023-05-06T02:32:11.705Z,5.00
2023-05-06T02:34:39.920Z,4.50
2023-05-06T02:37:08.074Z,4.97
2023-05-06T02:39:36.406Z,4.80
2023-05-06T02:42:04.465Z,5.73
2023-05-06T02:44:33.005Z,6.27
2023-05-06T02:47:00.987Z,6.40
2023-05-06T02:49:29.049Z,5.27
2023-05-06T02:51:58.371Z,4.77
2023-05-06T02:54:27.725Z,4.87
2023-05-06T02:56:56.146Z,4.33
2023-05-06T02:59:25.250Z,4.10
2023-05-06T03:01:53.143Z,3.83
2023-05-06T03:04:22.109Z,3.70
2023-05-06T03:06:50.653Z,4.87
2023-05-06T03:09:24.161Z,4.07
2023-05-06T03:11:52.431Z,5.60
2023-05-06T03:14:21.544Z,4.57
2023-05-06T03:16:50.232Z,6.43
2023-05-06T03:19:18.426Z,7.73
2023-05-06T03:21:46.661Z,8.47
2023-05-06T03:24:14.728Z,9.00
2023-05-06T03:26:43.616Z,9.27
2023-05-06T03:29:11.977Z,10.07
2023-05-06T03:31:40.573Z,12.00
2023-05-06T03:34:08.857Z,11.40
2023-05-06T03:36:37.469Z,9.90
2023-05-06T03:39:05.726Z,10.33
2023-05-06T03:41:34.773Z,9.77
2023-05-06T03:44:06.038Z,9.47
2023-05-06T03:46:35.020Z,9.87
2023-05-06T03:49:03.548Z,9.10
2023-05-06T03:51:32.617Z,8.97
2023-05-06T03:54:01.066Z,9.07
2023-05-06T03:56:31.595Z,8.33
2023-05-06T03:58:59.856Z,7.83
2023-05-06T04:01:28.136Z,6.23
2023-05-06T04:03:56.169Z,6.53
2023-05-06T04:06:30.613Z,5.43
2023-05-06T04:08:58.790Z,4.87
2023-05-06T04:11:29.106Z,5.40
2023-05-06T04:13:57.825Z,4.87
2023-05-06T04:16:26.969Z,4.80
2023-05-06T04:18:55.775Z,4.87
2023-05-06T04:21:23.936Z,3.83
2023-05-06T04:23:52.103Z,4.57
2023-05-06T04:26:22.867Z,4.43
2023-05-06T04:28:51.024Z,3.70
2023-05-06T04:31:19.309Z,3.17
2023-05-06T04:33:47.408Z,3.00
2023-05-06T04:36:16.335Z,3.50
2023-05-06T04:38:47.752Z,2.30
2023-05-06T04:41:16.330Z,2.23
2023-05-06T04:43:44.586Z,2.20
2023-05-06T04:46:12.915Z,2.30
2023-05-06T04:48:42.256Z,1.97
2023-05-06T04:51:10.704Z,2.07
2023-05-06T04:53:38.901Z,2.63
2023-05-06T04:56:07.900Z,1.97
2023-05-06T04:58:35.929Z,2.00
2023-05-06T05:01:05.169Z,1.97
2023-05-06T05:03:34.397Z,2.10
2023-05-06T05:06:06.979Z,1.92
2023-05-06T05:08:35.016Z,2.53
2023-05-06T05:11:03.000Z,2.72
2023-05-06T05:13:31.353Z,2.60
2023-05-06T05:15:59.773Z,3.08
2023-05-06T05:18:29.643Z,2.28
2023-05-06T05:20:57.996Z,2.28
2023-05-06T05:23:26.143Z,2.33
2023-05-06T05:25:54.396Z,2.10
2023-05-06T05:28:23.400Z,1.77
2023-05-06T05:30:52.354Z,2.40
2023-05-06T05:33:20.876Z,2.10
2023-05-06T05:35:49.268Z,1.98
2023-05-06T05:38:18.206Z,1.80
2023-05-06T05:40:47.597Z,1.98
2023-05-06T05:43:15.714Z,2.08
2023-05-06T05:45:43.673Z,1.70
2023-05-06T05:48:11.759Z,1.90
2023-05-06T05:50:40.105Z,1.67
2023-05-06T05:53:08.918Z,1.98
2023-05-06T05:55:38.149Z,1.65
2023-05-06T05:58:06.482Z,1.67
2023-05-06T06:00:36.567Z,1.55
2023-05-06T06:03:05.192Z,1.60
2023-05-06T06:05:33.670Z,1.58
2023-05-06T06:08:03.659Z,1.67
2023-05-06T06:10:32.228Z,1.73
2023-05-06T06:13:00.719Z,1.55
2023-05-06T06:15:29.797Z,1.67
2023-05-06T06:17:58.361Z,1.65
2023-05-06T06:20:26.959Z,1.35
2023-05-06T06:22:55.785Z,1.50
2023-05-06T06:25:24.179Z,1.80
2023-05-06T06:27:52.228Z,1.63
2023-05-06T06:30:20.404Z,1.98
2023-05-06T06:32:52.976Z,1.15
2023-05-06T06:35:21.287Z,1.98
2023-05-06T06:37:49.288Z,1.42
2023-05-06T06:40:17.592Z,1.10
2023-05-06T06:42:47.106Z,1.40
2023-05-06T06:45:15.916Z,1.50
2023-05-06T06:47:44.169Z,1.20
2023-05-06T06:50:12.422Z,1.13
2023-05-06T06:52:41.168Z,1.65
2023-05-06T06:55:10.082Z,1.40
2023-05-06T06:57:40.351Z,1.27
2023-05-06T07:00:08.640Z,1.10
2023-05-06T07:02:37.610Z,1.48
2023-05-06T07:05:06.267Z,1.10
2023-05-06T07:07:34.910Z,1.43
2023-05-06T07:10:02.976Z,1.30
2023-05-06T07:12:31.766Z,1.17
2023-05-06T07:14:59.824Z,1.30
2023-05-06T07:17:28.104Z,1.20
2023-05-06T07:19:56.436Z,1.17
2023-05-06T07:22:27.931Z,1.43
2023-05-06T07:24:56.199Z,0.93
2023-05-06T07:27:24.520Z,1.77
2023-05-06T07:29:52.463Z,1.13
2023-05-06T07:32:20.807Z,1.27
2023-05-06T07:34:49.124Z,1.70
2023-05-06T07:37:17.211Z,0.90
2023-05-06T07:39:45.985Z,1.20
2023-05-06T07:42:14.190Z,1.00
2023-05-06T07:44:42.953Z,1.40
2023-05-06T07:47:11.253Z,1.17
2023-05-06T07:49:39.485Z,1.23
2023-05-06T07:52:07.441Z,1.27
2023-05-06T07:54:35.668Z,1.00
2023-05-06T07:57:04.211Z,1.57
2023-05-06T07:59:32.585Z,2.17
2023-05-06T08:02:05.901Z,1.10
2023-05-06T08:04:34.332Z,1.13
2023-05-06T08:07:02.569Z,0.90
2023-05-06T08:09:31.225Z,0.93
2023-05-06T08:11:59.423Z,2.27
2023-05-06T08:14:27.908Z,1.83
2023-05-06T08:16:56.009Z,1.50
2023-05-06T08:19:24.020Z,1.23
2023-05-06T08:21:52.259Z,1.10
2023-05-06T08:24:21.006Z,1.00
2023-05-06T08:26:49.035Z,1.60
2023-05-06T08:29:17.375Z,1.00
2023-05-06T08:31:45.488Z,1.10
2023-05-06T08:34:13.509Z,1.33
2023-05-06T08:36:41.734Z,1.10
2023-05-06T08:39:09.519Z,1.60
2023-05-06T08:41:39.141Z,2.13
2023-05-06T08:44:08.433Z,1.93
2023-05-06T08:46:36.856Z,1.40
2023-05-06T08:49:05.209Z,1.20
2023-05-06T08:51:34.252Z,1.40
2023-05-06T08:54:03.839Z,1.20
2023-05-06T08:56:34.176Z,1.30
2023-05-06T08:59:02.736Z,1.30
2023-05-06T09:01:31.426Z,1.33
2023-05-06T09:04:00.186Z,1.30
2023-05-06T09:06:31.182Z,1.80
2023-05-06T09:08:59.511Z,1.47
2023-05-06T09:11:33.181Z,1.30
2023-05-06T09:14:12.705Z,1.40
2023-05-06T09:16:46.136Z,1.30
2023-05-06T09:19:17.512Z,1.17
2023-05-06T09:21:48.756Z,1.27
2023-05-06T09:24:17.602Z,1.20
2023-05-06T09:26:46.593Z,1.30
2023-05-06T09:29:15.065Z,1.20
2023-05-06T09:31:45.521Z,1.30
2023-05-06T09:34:14.854Z,1.30
2023-05-06T09:36:43.562Z,1.80
2023-05-06T09:39:11.927Z,1.70
2023-05-06T09:41:40.717Z,1.30
2023-05-06T09:44:09.037Z,2.50
2023-05-06T09:46:37.266Z,1.70
2023-05-06T09:49:06.036Z,1.77
2023-05-06T09:51:34.341Z,1.30
2023-05-06T09:54:04.012Z,1.60
2023-05-06T09:56:33.074Z,1.60
2023-05-06T09:59:04.632Z,1.80
2023-05-06T10:01:37.536Z,1.83
2023-05-06T10:04:10.004Z,1.63
2023-05-06T10:06:41.171Z,2.77
2023-05-06T10:09:09.951Z,2.10
2023-05-06T10:11:38.504Z,1.53
2023-05-06T10:14:07.757Z,1.90
2023-05-06T10:16:37.873Z,2.03
2023-05-06T10:19:07.692Z,1.40
2023-05-06T10:21:40.913Z,1.50
2023-05-06T10:24:12.508Z,1.80
2023-05-06T10:26:42.471Z,1.40
2023-05-06T10:29:11.902Z,1.50
2023-05-06T10:31:53.785Z,1.90
2023-05-06T10:34:29.547Z,1.60
2023-05-06T10:36:58.570Z,2.30
2023-05-06T10:39:27.491Z,1.70
2023-05-06T10:41:56.104Z,1.90
2023-05-06T10:44:58.048Z,1.70
2023-05-06T10:47:27.267Z,1.37
2023-05-06T10:50:21.342Z,1.57
2023-05-06T10:52:59.300Z,1.60
2023-05-06T10:55:32.604Z,1.30
2023-05-06T10:58:15.126Z,1.50
2023-05-06T11:00:43.942Z,2.67
2023-05-06T11:03:15.812Z,2.40
2023-05-06T11:05:49.292Z,2.10
2023-05-06T11:08:28.019Z,1.70
2023-05-06T11:10:56.131Z,1.60
2023-05-06T11:13:30.021Z,1.70
2023-05-06T11:15:58.877Z,1.97
2023-05-06T11:18:27.996Z,2.50
2023-05-06T11:21:02.848Z,2.30
2023-05-06T11:23:55.518Z,2.37
2023-05-06T11:26:25.210Z,2.00
2023-05-06T11:28:53.544Z,1.50
2023-05-06T11:31:22.996Z,1.50
2023-05-06T11:33:53.514Z,1.70
2023-05-06T11:36:22.276Z,1.60
2023-05-06T11:38:53.045Z,1.80
2023-05-06T11:41:23.667Z,2.00
2023-05-06T11:43:53.224Z,1.70
2023-05-06T11:46:22.695Z,2.23
2023-05-06T11:48:51.315Z,1.60
2023-05-06T11:51:23.500Z,1.60
2023-05-06T11:54:12.526Z,2.10
2023-05-06T11:56:48.579Z,1.73
2023-05-06T11:59:18.870Z,10.90
2023-05-06T12:01:47.206Z,2.10
2023-05-06T12:04:16.114Z,2.20
2023-05-06T12:06:44.625Z,1.70
2023-05-06T12:09:14.407Z,1.70
2023-05-06T12:11:45.044Z,1.97
2023-05-06T12:14:13.649Z,1.70
2023-05-06T12:16:42.067Z,2.30
2023-05-06T12:19:11.367Z,2.63
2023-05-06T12:21:39.799Z,2.20
2023-05-06T12:24:08.414Z,2.20
2023-05-06T12:27:02.405Z,2.03
2023-05-06T12:29:32.133Z,2.10
2023-05-06T12:32:15.824Z,2.17
2023-05-06T12:34:44.388Z,2.00
2023-05-06T12:37:14.753Z,1.80
2023-05-06T12:39:43.071Z,1.80
2023-05-06T12:42:20.878Z,1.77
2023-05-06T12:44:49.536Z,1.83
2023-05-06T12:47:26.856Z,1.93
2023-05-06T12:49:59.607Z,2.00
2023-05-06T12:52:30.270Z,1.80
2023-05-06T12:55:01.258Z,2.23
2023-05-06T12:57:29.708Z,1.70
2023-05-06T12:59:57.793Z,2.00
2023-05-06T13:02:27.205Z,2.00
2023-05-06T13:04:55.366Z,2.37
2023-05-06T13:07:26.381Z,1.97
2023-05-06T13:09:57.126Z,2.30
2023-05-06T13:12:26.305Z,2.00
2023-05-06T13:14:55.558Z,1.90
2023-05-06T13:17:25.579Z,3.33
2023-05-06T13:19:55.381Z,2.07
2023-05-06T13:22:24.879Z,2.83
2023-05-06T13:24:52.978Z,1.77
2023-05-06T13:27:22.394Z,1.90
2023-05-06T13:29:52.053Z,2.30
2023-05-06T13:32:20.220Z,2.27
2023-05-06T13:34:48.424Z,2.40
2023-05-06T13:37:16.742Z,2.20
2023-05-06T13:39:44.821Z,1.90
2023-05-06T13:42:14.241Z,2.00
2023-05-06T13:44:42.465Z,5.07
2023-05-06T13:47:11.475Z,1.90
2023-05-06T13:49:39.658Z,2.10
2023-05-06T13:52:10.280Z,2.27
2023-05-06T13:54:38.995Z,2.30
2023-05-06T13:57:07.319Z,2.10
2023-05-06T13:59:36.006Z,2.00
2023-05-06T14:02:08.798Z,3.23
2023-05-06T14:04:38.510Z,1.80
2023-05-06T14:07:06.761Z,1.60
2023-05-06T14:09:34.777Z,1.73
2023-05-06T14:12:03.311Z,2.47
2023-05-06T14:14:32.387Z,2.47
2023-05-06T14:17:00.847Z,2.20
2023-05-06T14:19:30.335Z,2.60
2023-05-06T14:21:58.608Z,2.30
2023-05-06T14:24:26.527Z,2.53
2023-05-06T14:26:54.778Z,2.07
2023-05-06T14:29:23.511Z,2.80
2023-05-06T14:31:54.316Z,2.70
2023-05-06T14:34:22.484Z,2.33
2023-05-06T14:36:59.802Z,2.43
2023-05-06T14:39:28.075Z,2.70
2023-05-06T14:41:56.100Z,2.40
2023-05-06T14:44:24.051Z,2.07
2023-05-06T14:46:52.123Z,2.30
2023-05-06T14:49:20.958Z,2.20
2023-05-06T14:51:50.332Z,2.50
2023-05-06T14:54:18.348Z,2.10
2023-05-06T14:56:47.200Z,2.57
2023-05-06T14:59:16.264Z,2.20
2023-05-06T15:01:44.543Z,2.70
2023-05-06T15:04:12.668Z,2.10
2023-05-06T15:06:41.100Z,2.60
2023-05-06T15:09:09.608Z,2.70
2023-05-06T15:11:38.084Z,2.63
2023-05-06T15:14:06.939Z,2.50
2023-05-06T15:16:35.076Z,2.03
2023-05-06T15:19:06.814Z,1.73
2023-05-06T15:21:35.336Z,2.53
2023-05-06T15:24:03.662Z,2.03
2023-05-06T15:26:32.017Z,2.03
2023-05-06T15:29:00.579Z,1.90
2023-05-06T15:31:31.525Z,2.37
2023-05-06T15:34:03.923Z,2.33
2023-05-06T15:36:33.524Z,1.80
2023-05-06T15:39:01.737Z,1.80
2023-05-06T15:41:32.530Z,1.60
2023-05-06T15:44:03.163Z,1.60
2023-05-06T15:46:32.385Z,1.90
2023-05-06T15:49:29.642Z,2.53
2023-05-06T15:51:52.552Z,2.13
2023-05-06T15:54:20.974Z,3.20
2023-05-06T15:56:49.312Z,3.10
2023-05-06T15:59:17.834Z,3.60
2023-05-06T16:04:20.363Z,3.80
2023-05-06T16:06:49.223Z,4.53
2023-05-06T16:09:17.433Z,4.00
2023-05-06T16:11:45.509Z,4.90
2023-05-06T16:14:13.800Z,4.60
2023-05-06T16:16:42.357Z,4.27
2023-05-06T16:19:10.670Z,3.73
2023-05-06T16:21:38.995Z,3.60
2023-05-06T16:24:07.708Z,4.63
2023-05-06T16:26:36.988Z,5.90
2023-05-06T16:29:05.439Z,5.97
2023-05-06T16:31:34.850Z,5.70
2023-05-06T16:34:03.033Z,5.77
2023-05-06T16:36:31.829Z,5.53
2023-05-06T16:39:00.208Z,5.03
2023-05-06T16:41:28.569Z,4.40
2023-05-06T16:43:56.552Z,3.90
2023-05-06T16:46:24.859Z,4.10
2023-05-06T16:48:56.156Z,3.63
2023-05-06T16:51:25.021Z,3.77
2023-05-06T16:53:53.278Z,3.30
2023-05-06T16:56:21.578Z,3.50
2023-05-06T16:58:49.781Z,3.83
2023-05-06T17:01:18.149Z,3.37
2023-05-06T17:03:46.976Z,3.00
2023-05-06T17:06:15.404Z,3.30
2023-05-06T17:08:44.308Z,4.17
2023-05-06T17:11:17.834Z,3.70
2023-05-06T17:13:46.313Z,3.77
2023-05-06T17:16:14.760Z,3.77
2023-05-06T17:18:44.960Z,3.17
2023-05-06T17:21:17.064Z,4.73
2023-05-06T17:23:45.209Z,3.20
2023-05-06T17:26:13.094Z,2.93
2023-05-06T17:28:43.202Z,3.10
2023-05-06T17:31:11.483Z,3.00
2023-05-06T17:33:48.713Z,3.10
2023-05-06T17:36:19.780Z,2.90
2023-05-06T17:38:58.668Z,2.97
2023-05-06T17:41:29.486Z,3.20
2023-05-06T17:43:57.702Z,2.90
2023-05-06T17:46:26.105Z,2.90
2023-05-06T17:48:54.583Z,2.90
2023-05-06T17:51:22.929Z,3.10
2023-05-06T17:53:51.043Z,3.23
2023-05-06T17:56:20.790Z,3.47
2023-05-06T17:58:49.740Z,4.03
2023-05-06T18:01:20.158Z,3.63
2023-05-06T18:03:49.431Z,3.27
2023-05-06T18:06:19.018Z,3.47
2023-05-06T18:08:47.419Z,3.00
2023-05-06T18:11:18.052Z,3.30
2023-05-06T18:13:47.373Z,3.23
2023-05-06T18:16:16.142Z,3.10
2023-05-06T18:18:46.409Z,4.00
2023-05-06T18:21:16.568Z,3.30
2023-05-06T18:23:46.964Z,3.33
2023-05-06T18:26:24.390Z,3.20
2023-05-06T18:29:07.257Z,3.10
2023-05-06T18:31:35.392Z,3.43
2023-05-06T18:34:03.794Z,2.93
2023-05-06T18:36:32.730Z,3.33
2023-05-06T18:39:05.066Z,2.50
2023-05-06T18:41:33.804Z,3.17
2023-05-06T18:44:09.909Z,3.30
2023-05-06T18:46:40.419Z,3.13
2023-05-06T18:49:11.268Z,3.40
2023-05-06T18:51:39.889Z,3.23
2023-05-06T18:54:08.586Z,3.37
2023-05-06T18:56:37.622Z,3.43
2023-05-06T18:59:05.890Z,2.93
2023-05-06T19:01:34.189Z,3.30
2023-05-06T19:04:04.903Z,3.27
2023-05-06T19:06:36.273Z,3.20
2023-05-06T19:09:05.267Z,2.93
2023-05-06T19:11:39.992Z,3.10
2023-05-06T19:14:08.585Z,3.13
2023-05-06T19:16:37.532Z,3.00
2023-05-06T19:19:08.662Z,3.10
2023-05-06T19:21:38.847Z,3.17
2023-05-06T19:24:07.053Z,3.27
2023-05-06T19:26:35.154Z,3.23
2023-05-06T19:29:03.935Z,3.40
2023-05-06T19:31:35.250Z,3.50
2023-05-06T19:34:03.612Z,2.80
2023-05-06T19:36:32.188Z,3.53
2023-05-06T19:39:06.096Z,3.60
2023-05-06T19:41:35.636Z,3.07
2023-05-06T19:44:07.069Z,3.57
2023-05-06T19:46:37.765Z,3.60
2023-05-06T19:49:08.649Z,3.60
2023-05-06T19:51:37.775Z,3.13
2023-05-06T19:54:06.818Z,3.20
2023-05-06T19:56:35.141Z,3.20
2023-05-06T19:59:03.211Z,3.13
2023-05-06T20:01:31.414Z,3.20
2023-05-06T20:03:59.573Z,3.27
2023-05-06T20:06:29.761Z,3.30
2023-05-06T20:09:00.713Z,3.20
2023-05-06T20:11:29.718Z,3.10
2023-05-06T20:13:57.855Z,3.03
2023-05-06T20:16:26.305Z,3.00
2023-05-06T20:18:55.117Z,2.80
2023-05-06T20:21:23.716Z,3.00
2023-05-06T20:23:52.487Z,2.87
2023-05-06T20:26:26.623Z,3.00
2023-05-06T20:28:54.658Z,2.67
2023-05-06T20:31:22.976Z,3.13
2023-05-06T20:33:51.041Z,2.90
2023-05-06T20:36:20.071Z,2.67
2023-05-06T20:38:49.412Z,2.60
2023-05-06T20:41:17.439Z,2.77
2023-05-06T20:43:45.652Z,2.57
2023-05-06T20:46:16.103Z,2.70
2023-05-06T20:48:47.360Z,2.50
2023-05-06T20:51:18.904Z,2.97
2023-05-06T20:53:47.750Z,2.40
2023-05-06T20:56:25.428Z,2.97
2023-05-06T20:58:54.415Z,3.00
2023-05-06T21:01:24.144Z,2.37
2023-05-06T21:03:52.612Z,2.47
2023-05-06T21:06:21.039Z,2.00
2023-05-06T21:08:49.238Z,3.00
2023-05-06T21:11:17.736Z,2.33
2023-05-06T21:13:46.634Z,2.60
2023-05-06T21:16:16.534Z,2.37
2023-05-06T21:18:44.688Z,2.63
2023-05-06T21:21:12.769Z,2.23
2023-05-06T21:23:40.724Z,2.60
2023-05-06T21:26:13.146Z,2.27
2023-05-06T21:28:41.254Z,2.20
2023-05-06T21:31:09.809Z,2.40
2023-05-06T21:33:37.817Z,2.33
2023-05-06T21:36:07.141Z,2.77
2023-05-06T21:38:35.672Z,2.03
2023-05-06T21:41:07.633Z,2.60
2023-05-06T21:43:36.124Z,2.50
2023-05-06T21:46:04.691Z,2.53
2023-05-06T21:48:35.344Z,3.10
2023-05-06T21:51:04.250Z,2.73
2023-05-06T21:53:32.917Z,2.00
2023-05-06T21:56:01.127Z,1.80
2023-05-06T21:58:31.303Z,2.33
2023-05-06T22:00:59.635Z,2.17
2023-05-06T22:03:28.153Z,2.30
2023-05-06T22:05:56.496Z,1.70
2023-05-06T22:08:25.512Z,2.50
2023-05-06T22:10:53.881Z,2.00
2023-05-06T22:13:25.601Z,1.87
2023-05-06T22:15:54.356Z,1.80
2023-05-06T22:18:22.526Z,1.80
2023-05-06T22:20:52.849Z,1.57
2023-05-06T22:23:23.920Z,1.93
2023-05-06T22:25:52.397Z,1.80
2023-05-06T22:28:20.805Z,2.07
2023-05-06T22:30:49.126Z,1.70
2023-05-06T22:33:17.101Z,1.70
2023-05-06T22:35:45.114Z,1.90
2023-05-06T22:38:13.917Z,2.07
2023-05-06T22:40:41.973Z,1.60
2023-05-06T22:43:10.140Z,1.60
2023-05-06T22:45:38.573Z,1.63
2023-05-06T22:48:07.244Z,1.70
2023-05-06T22:50:35.637Z,1.97
2023-05-06T22:53:13.631Z,1.80
2023-05-06T22:55:43.000Z,2.00
2023-05-06T22:58:12.148Z,1.90
2023-05-06T23:00:43.836Z,1.90
2023-05-06T23:03:11.896Z,2.10
2023-05-06T23:05:40.375Z,1.93
2023-05-06T23:08:16.088Z,1.70
2023-05-06T23:10:44.171Z,1.30
2023-05-06T23:13:12.411Z,1.60
2023-05-06T23:15:40.544Z,1.73
2023-05-06T23:18:08.534Z,1.87
2023-05-06T23:20:36.781Z,1.63
2023-05-06T23:23:05.010Z,1.97
2023-05-06T23:25:33.000Z,1.63
2023-05-06T23:28:01.428Z,1.67
2023-05-06T23:30:29.751Z,1.90
2023-05-06T23:32:57.913Z,1.40
2023-05-06T23:35:26.291Z,1.67
2023-05-06T23:37:54.425Z,1.80
2023-05-06T23:40:23.121Z,1.43
2023-05-06T23:42:51.454Z,1.43
2023-05-06T23:45:20.698Z,2.20
2023-05-06T23:47:48.571Z,1.40
2023-05-06T23:50:16.780Z,1.63
2023-05-06T23:52:44.730Z,1.57
2023-05-06T23:55:13.670Z,1.90
2023-05-06T23:57:45.121Z,1.83
